createdAt,value
2017-03-26T00:00:52.234Z,44.70
2017-03-26T00:01:57.902Z,44.70
2017-03-26T00:03:04.145Z,45.00
2017-03-26T00:04:09.861Z,44.00
2017-03-26T00:05:14.561Z,43.90
2017-03-26T00:06:19.397Z,43.70
2017-03-26T00:07:25.652Z,44.60
2017-03-26T00:08:31.928Z,43.70
2017-03-26T00:09:36.735Z,43.80
2017-03-26T00:10:42.273Z,46.10
2017-03-26T00:11:48.672Z,45.30
2017-03-26T00:12:54.425Z,45.10
2017-03-26T00:13:59.312Z,45.10
2017-03-26T00:15:05.742Z,43.70
2017-03-26T00:16:11.476Z,45.40
2017-03-26T00:17:17.331Z,44.80
2017-03-26T00:18:22.937Z,45.30
2017-03-26T00:19:27.660Z,45.30
2017-03-26T00:20:33.900Z,44.70
2017-03-26T00:21:38.573Z,44.80
2017-03-26T00:22:44.989Z,43.50
2017-03-26T00:23:49.758Z,43.50
2017-03-26T00:24:55.438Z,43.70
2017-03-26T00:26:00.944Z,44.60
2017-03-26T00:27:06.560Z,43.60
2017-03-26T00:28:12.253Z,44.10
2017-03-26T00:29:17.750Z,44.40
2017-03-26T00:30:23.423Z,44.10
2017-03-26T00:31:28.400Z,44.20
2017-03-26T00:32:33.893Z,43.60
2017-03-26T00:33:39.277Z,43.90
2017-03-26T00:34:45.672Z,44.80
2017-03-26T00:35:51.236Z,45.40
2017-03-26T00:36:57.629Z,45.40
2017-03-26T00:38:03.241Z,45.50
2017-03-26T00:39:08.369Z,45.50
2017-03-26T00:40:13.860Z,45.30
2017-03-26T00:41:20.285Z,45.40
2017-03-26T00:42:25.141Z,45.40
2017-03-26T00:43:30.678Z,45.20
2017-03-26T00:44:37.089Z,45.10
2017-03-26T00:45:42.724Z,45.10
2017-03-26T00:46:48.417Z,45.80
2017-03-26T00:47:54.004Z,45.50
2017-03-26T00:48:58.801Z,45.50
2017-03-26T00:50:03.507Z,45.10
2017-03-26T00:51:10.023Z,45.70
2017-03-26T00:52:15.625Z,45.60
2017-03-26T00:53:20.453Z,45.60
2017-03-26T00:54:26.921Z,45.60
2017-03-26T00:55:31.676Z,45.70
2017-03-26T00:56:37.400Z,46.00
2017-03-26T00:57:42.879Z,45.80
2017-03-26T00:58:47.582Z,45.60
2017-03-26T00:59:53.158Z,45.10
2017-03-26T01:00:59.578Z,45.40
2017-03-26T01:02:04.301Z,45.30
2017-03-26T01:03:10.741Z,45.00
2017-03-26T01:04:16.318Z,45.30
2017-03-26T01:05:21.131Z,45.40
2017-03-26T01:06:27.398Z,45.10
2017-03-26T01:07:33.793Z,45.10
2017-03-26T01:08:38.677Z,45.00
2017-03-26T01:09:44.094Z,45.90
2017-03-26T01:10:49.596Z,44.60
2017-03-26T01:11:55.274Z,44.90
2017-03-26T01:13:00.933Z,45.10
2017-03-26T01:14:08.393Z,44.80
2017-03-26T01:15:13.169Z,44.80
2017-03-26T01:16:18.845Z,45.90
2017-03-26T01:17:23.547Z,45.90
2017-03-26T01:18:28.970Z,44.90
2017-03-26T01:19:34.569Z,45.40
2017-03-26T01:20:39.257Z,45.50
2017-03-26T01:21:44.057Z,45.00
2017-03-26T01:22:50.419Z,46.60
2017-03-26T01:23:56.009Z,45.00
2017-03-26T01:25:00.776Z,44.90
2017-03-26T01:26:07.269Z,45.00
2017-03-26T01:27:12.033Z,44.90
2017-03-26T01:28:18.388Z,46.50
2017-03-26T01:29:24.203Z,45.50
2017-03-26T01:30:29.798Z,45.10
2017-03-26T01:31:34.528Z,45.00
2017-03-26T01:32:40.047Z,45.60
2017-03-26T01:33:44.846Z,45.80
2017-03-26T01:34:51.259Z,46.20
2017-03-26T01:35:56.947Z,45.20
2017-03-26T01:37:01.682Z,45.10
2017-03-26T01:38:08.030Z,46.20
2017-03-26T01:39:14.549Z,45.10
2017-03-26T01:40:20.247Z,45.00
2017-03-26T01:41:27.588Z,45.30
2017-03-26T01:42:32.488Z,45.20
2017-03-26T01:43:38.170Z,45.60
2017-03-26T01:44:43.704Z,45.90
2017-03-26T01:45:49.173Z,45.80
2017-03-26T01:46:55.605Z,46.60
2017-03-26T01:48:01.409Z,45.60
2017-03-26T01:49:06.328Z,45.60
2017-03-26T01:50:11.053Z,46.40
2017-03-26T01:51:16.732Z,45.70
2017-03-26T01:52:22.252Z,46.20
2017-03-26T01:53:28.006Z,45.90
2017-03-26T01:54:33.589Z,46.20
2017-03-26T01:55:38.430Z,46.00
2017-03-26T01:56:43.983Z,46.10
2017-03-26T01:57:50.388Z,47.20
2017-03-26T01:58:56.033Z,47.20
2017-03-26T02:00:02.406Z,46.50
2017-03-26T02:01:08.141Z,46.60
2017-03-26T02:02:12.897Z,46.60
2017-03-26T02:03:18.642Z,46.70
2017-03-26T02:04:24.156Z,47.00
2017-03-26T02:05:29.625Z,47.00
2017-03-26T02:06:35.481Z,47.80
2017-03-26T02:07:40.297Z,47.70
2017-03-26T02:08:46.829Z,47.90
2017-03-26T02:09:52.453Z,47.40
2017-03-26T02:10:57.476Z,47.40
2017-03-26T02:12:02.912Z,47.20
2017-03-26T02:13:08.521Z,47.40
2017-03-26T02:14:14.198Z,48.30
2017-03-26T02:15:20.353Z,47.90
2017-03-26T02:16:25.321Z,47.80
2017-03-26T02:17:30.034Z,48.30
2017-03-26T02:18:35.591Z,49.00
2017-03-26T02:19:41.145Z,47.60
2017-03-26T02:20:46.929Z,48.60
2017-03-26T02:21:52.577Z,47.90
2017-03-26T02:22:58.121Z,47.20
2017-03-26T02:24:03.114Z,47.20
2017-03-26T02:25:09.536Z,48.20
2017-03-26T02:26:14.376Z,48.20
2017-03-26T02:27:20.019Z,47.20
2017-03-26T02:28:25.589Z,48.20
2017-03-26T02:29:32.015Z,48.30
2017-03-26T02:30:37.009Z,48.20
2017-03-26T02:31:43.393Z,47.50
2017-03-26T02:32:48.931Z,46.50
2017-03-26T02:33:54.424Z,46.80
2017-03-26T02:34:59.981Z,46.80
2017-03-26T02:36:04.994Z,46.80
2017-03-26T02:37:10.517Z,46.80
2017-03-26T02:38:16.854Z,48.20
2017-03-26T02:39:21.633Z,48.20
2017-03-26T02:40:27.164Z,47.40
2017-03-26T02:41:33.599Z,47.70
2017-03-26T02:42:39.361Z,48.70
2017-03-26T02:43:44.998Z,47.90
2017-03-26T02:44:50.634Z,48.40
2017-03-26T02:45:56.163Z,47.80
2017-03-26T02:47:01.057Z,47.70
2017-03-26T02:48:07.333Z,48.10
2017-03-26T02:49:12.833Z,47.60
2017-03-26T02:50:17.617Z,47.50
2017-03-26T02:51:23.121Z,47.70
2017-03-26T02:52:29.485Z,46.90
2017-03-26T02:53:34.355Z,47.00
2017-03-26T02:54:40.701Z,46.20
2017-03-26T02:55:45.505Z,46.20
2017-03-26T02:56:51.872Z,47.80
2017-03-26T02:57:56.905Z,47.80
2017-03-26T02:59:03.110Z,46.60
2017-03-26T03:00:09.529Z,47.30
2017-03-26T03:01:15.072Z,47.60
2017-03-26T03:02:20.913Z,46.80
2017-03-26T03:03:25.698Z,46.70
2017-03-26T03:04:32.096Z,46.50
2017-03-26T03:05:37.107Z,46.60
2017-03-26T03:06:42.673Z,47.10
2017-03-26T03:07:47.526Z,47.00
2017-03-26T03:08:53.067Z,47.00
2017-03-26T03:09:58.674Z,46.70
2017-03-26T03:11:04.141Z,47.70
2017-03-26T03:12:10.668Z,47.70
2017-03-26T03:13:16.224Z,47.00
2017-03-26T03:14:21.910Z,47.30
2017-03-26T03:15:27.537Z,47.30
2017-03-26T03:16:33.964Z,48.80
2017-03-26T03:17:38.844Z,48.80
2017-03-26T03:18:45.168Z,47.20
2017-03-26T03:19:50.769Z,47.00
2017-03-26T03:20:56.452Z,46.70
2017-03-26T03:22:01.261Z,46.70
2017-03-26T03:23:06.898Z,47.20
2017-03-26T03:24:13.209Z,47.60
2017-03-26T03:25:18.092Z,47.50
2017-03-26T03:26:24.509Z,47.80
2017-03-26T03:27:30.199Z,47.40
2017-03-26T03:28:35.045Z,47.30
2017-03-26T03:29:40.524Z,47.20
2017-03-26T03:30:46.204Z,47.60
2017-03-26T03:31:52.381Z,47.60
2017-03-26T03:32:57.269Z,47.60
2017-03-26T03:34:02.930Z,47.00
2017-03-26T03:35:08.449Z,47.80
2017-03-26T03:36:14.125Z,47.90
2017-03-26T03:37:19.897Z,47.40
2017-03-26T03:38:26.217Z,47.70
2017-03-26T03:39:31.804Z,47.00
2017-03-26T03:40:37.472Z,48.30
2017-03-26T03:41:42.968Z,48.30
2017-03-26T03:42:47.818Z,46.90
2017-03-26T03:43:53.448Z,47.70
2017-03-26T03:44:59.030Z,47.60
2017-03-26T03:46:05.493Z,48.00
2017-03-26T03:47:10.257Z,47.80
2017-03-26T03:48:15.869Z,47.40
2017-03-26T03:49:20.721Z,47.40
2017-03-26T03:50:27.102Z,49.30
2017-03-26T03:51:31.817Z,49.30
2017-03-26T03:52:36.577Z,50.00
2017-03-26T03:53:42.215Z,48.70
2017-03-26T03:54:47.721Z,48.50
2017-03-26T03:55:53.297Z,49.50
2017-03-26T03:56:58.972Z,47.50
2017-03-26T03:58:04.610Z,47.50
2017-03-26T03:59:09.406Z,47.60
2017-03-26T04:00:14.932Z,47.40
2017-03-26T04:01:20.573Z,47.30
2017-03-26T04:02:27.077Z,51.30
2017-03-26T04:03:31.785Z,51.00
2017-03-26T04:04:37.526Z,52.00
2017-03-26T04:05:43.056Z,47.80
2017-03-26T04:06:48.534Z,48.20
2017-03-26T04:07:54.151Z,52.50
2017-03-26T04:08:58.910Z,47.30
2017-03-26T04:10:05.202Z,47.70
2017-03-26T04:11:10.878Z,49.10
2017-03-26T04:12:15.704Z,48.80
2017-03-26T04:13:21.306Z,47.50
2017-03-26T04:14:27.655Z,48.10
2017-03-26T04:15:33.271Z,49.40
2017-03-26T04:16:39.444Z,49.20
2017-03-26T04:17:45.577Z,50.00
2017-03-26T04:18:51.175Z,47.90
2017-03-26T04:19:56.074Z,47.90
2017-03-26T04:21:01.581Z,48.90
2017-03-26T04:22:06.300Z,48.30
2017-03-26T04:23:11.896Z,48.20
2017-03-26T04:24:17.477Z,48.60
2017-03-26T04:25:22.449Z,48.60
2017-03-26T04:26:27.960Z,49.20
2017-03-26T04:27:32.735Z,48.40
2017-03-26T04:28:39.094Z,48.10
2017-03-26T04:29:43.937Z,48.10
2017-03-26T04:30:49.426Z,48.80
2017-03-26T04:31:55.089Z,49.10
2017-03-26T04:33:00.605Z,48.60
2017-03-26T04:34:06.101Z,48.50
2017-03-26T04:35:11.044Z,48.50
2017-03-26T04:36:16.560Z,48.80
2017-03-26T04:37:23.053Z,49.60
2017-03-26T04:38:28.537Z,48.60
2017-03-26T04:39:33.434Z,48.60
2017-03-26T04:40:39.151Z,49.40
2017-03-26T04:41:45.505Z,50.00
2017-03-26T04:42:51.072Z,48.80
2017-03-26T04:43:56.014Z,48.70
2017-03-26T04:45:01.625Z,49.10
2017-03-26T04:46:07.302Z,49.00
2017-03-26T04:47:13.566Z,50.20
2017-03-26T04:48:18.268Z,50.00
2017-03-26T04:49:23.897Z,49.20
2017-03-26T04:50:29.498Z,49.30
2017-03-26T04:51:35.928Z,50.50
2017-03-26T04:52:40.753Z,50.00
2017-03-26T04:53:47.157Z,49.20
2017-03-26T04:54:52.805Z,49.90
2017-03-26T04:55:57.602Z,49.90
2017-03-26T04:57:03.107Z,50.60
2017-03-26T04:58:08.784Z,50.30
2017-03-26T04:59:15.292Z,50.30
2017-03-26T05:00:21.098Z,51.00
2017-03-26T05:01:26.713Z,50.90
2017-03-26T05:02:32.193Z,50.60
2017-03-26T05:03:37.372Z,50.40
2017-03-26T05:04:42.864Z,50.80
2017-03-26T05:05:48.480Z,50.00
2017-03-26T05:06:53.980Z,49.70
2017-03-26T05:07:58.905Z,49.70
2017-03-26T05:09:06.199Z,50.30
2017-03-26T05:10:11.149Z,50.30
2017-03-26T05:11:15.833Z,50.10
2017-03-26T05:12:21.382Z,49.90
2017-03-26T05:13:26.857Z,50.20
2017-03-26T05:14:33.421Z,49.70
2017-03-26T05:15:38.230Z,49.60
2017-03-26T05:16:44.604Z,49.80
2017-03-26T05:17:50.101Z,50.00
2017-03-26T05:18:55.734Z,49.50
2017-03-26T05:20:01.506Z,49.70
2017-03-26T05:21:06.200Z,49.60
2017-03-26T05:22:10.945Z,50.00
2017-03-26T05:23:16.572Z,49.50
2017-03-26T05:24:22.855Z,50.40
2017-03-26T05:25:27.620Z,50.30
2017-03-26T05:26:33.942Z,49.90
2017-03-26T05:27:38.659Z,49.90
2017-03-26T05:28:43.260Z,49.00
2017-03-26T05:29:48.008Z,50.40
2017-03-26T05:30:53.421Z,50.60
2017-03-26T05:31:58.098Z,51.00
2017-03-26T05:33:02.798Z,51.70
2017-03-26T05:34:09.201Z,50.60
2017-03-26T05:35:14.088Z,50.60
2017-03-26T05:36:19.776Z,51.10
2017-03-26T05:37:25.428Z,51.00
2017-03-26T05:38:30.921Z,51.40
2017-03-26T05:39:35.743Z,51.40
2017-03-26T05:40:41.224Z,51.60
2017-03-26T05:41:47.186Z,51.40
2017-03-26T05:42:52.002Z,51.50
2017-03-26T05:43:58.269Z,53.00
2017-03-26T05:45:03.069Z,53.00
2017-03-26T05:46:08.653Z,52.80
2017-03-26T05:47:14.326Z,52.40
2017-03-26T05:48:20.627Z,51.90
2017-03-26T05:49:25.528Z,51.70
2017-03-26T05:50:31.913Z,52.30
2017-03-26T05:51:36.793Z,52.30
2017-03-26T05:52:42.557Z,51.70
2017-03-26T05:53:48.041Z,51.00
2017-03-26T05:54:54.213Z,52.20
2017-03-26T05:55:59.693Z,51.20
2017-03-26T05:57:05.389Z,50.70
2017-03-26T05:58:10.977Z,50.90
2017-03-26T05:59:15.726Z,51.10
2017-03-26T06:00:21.382Z,50.20
2017-03-26T06:01:27.760Z,51.00
2017-03-26T06:02:32.616Z,50.90
2017-03-26T06:03:37.433Z,50.10
2017-03-26T06:04:43.062Z,50.70
2017-03-26T06:05:49.385Z,51.60
2017-03-26T06:06:54.395Z,51.60
2017-03-26T06:08:00.120Z,51.20
2017-03-26T06:09:06.273Z,51.10
2017-03-26T06:10:11.148Z,51.40
2017-03-26T06:11:16.869Z,51.90
2017-03-26T06:12:23.161Z,51.50
2017-03-26T06:13:29.469Z,51.20
2017-03-26T06:14:34.873Z,51.10
2017-03-26T06:15:40.227Z,51.20
2017-03-26T06:16:45.749Z,50.80
2017-03-26T06:17:51.306Z,50.70
2017-03-26T06:18:56.230Z,50.70
2017-03-26T06:20:02.987Z,50.30
2017-03-26T06:21:09.328Z,50.90
2017-03-26T06:22:14.290Z,50.80
2017-03-26T06:23:19.859Z,50.30
2017-03-26T06:24:26.277Z,49.30
2017-03-26T06:25:31.973Z,50.30
2017-03-26T06:26:36.821Z,50.20
2017-03-26T06:27:42.310Z,49.80
2017-03-26T06:28:47.289Z,49.70
2017-03-26T06:29:52.835Z,49.60
2017-03-26T06:30:57.668Z,48.90
2017-03-26T06:32:03.293Z,49.70
2017-03-26T06:33:09.691Z,49.90
2017-03-26T06:34:14.645Z,49.80
2017-03-26T06:35:20.218Z,49.30
2017-03-26T06:36:26.653Z,48.90
2017-03-26T06:37:32.150Z,49.60
2017-03-26T06:38:36.917Z,49.60
2017-03-26T06:39:41.756Z,48.70
2017-03-26T06:40:47.445Z,49.00
2017-03-26T06:41:53.132Z,48.90
2017-03-26T06:42:58.638Z,48.30
2017-03-26T06:44:04.258Z,48.80
2017-03-26T06:45:10.692Z,49.00
2017-03-26T06:46:16.317Z,48.60
2017-03-26T06:47:21.900Z,49.20
2017-03-26T06:48:26.647Z,48.50
2017-03-26T06:49:32.262Z,48.70
2017-03-26T06:50:38.640Z,49.60
2017-03-26T06:51:43.526Z,49.50
2017-03-26T06:52:49.137Z,51.40
2017-03-26T06:53:54.669Z,49.30
2017-03-26T06:55:00.198Z,49.30
2017-03-26T06:56:05.781Z,48.90
2017-03-26T06:57:11.374Z,49.50
2017-03-26T06:58:17.061Z,49.10
2017-03-26T06:59:22.689Z,49.30
2017-03-26T07:00:28.270Z,49.40
2017-03-26T07:01:34.650Z,49.60
2017-03-26T07:02:42.505Z,49.50
2017-03-26T07:03:47.275Z,49.60
2017-03-26T07:04:52.869Z,49.80
2017-03-26T07:05:58.350Z,49.70
2017-03-26T07:07:04.148Z,49.70
2017-03-26T07:08:08.909Z,49.70
2017-03-26T07:09:15.153Z,49.10
2017-03-26T07:10:19.964Z,49.20
2017-03-26T07:11:26.344Z,48.90
2017-03-26T07:12:32.671Z,49.30
2017-03-26T07:13:38.432Z,50.00
2017-03-26T07:14:44.106Z,48.70
2017-03-26T07:15:49.721Z,48.70
2017-03-26T07:16:54.553Z,49.40
2017-03-26T07:18:01.013Z,48.60
2017-03-26T07:19:06.601Z,48.40
2017-03-26T07:20:12.257Z,49.70
2017-03-26T07:21:16.988Z,49.60
2017-03-26T07:22:23.334Z,49.50
2017-03-26T07:23:28.155Z,49.40
2017-03-26T07:24:33.748Z,48.90
2017-03-26T07:25:39.434Z,48.80
2017-03-26T07:26:45.026Z,48.90
2017-03-26T07:27:50.521Z,48.10
2017-03-26T07:28:57.078Z,48.70
2017-03-26T07:30:02.558Z,48.80
2017-03-26T07:31:07.362Z,48.80
2017-03-26T07:32:13.029Z,49.10
2017-03-26T07:33:19.449Z,48.90
2017-03-26T07:34:25.013Z,48.70
2017-03-26T07:35:29.991Z,48.60
2017-03-26T07:36:35.584Z,48.30
2017-03-26T07:37:41.170Z,48.00
2017-03-26T07:38:46.757Z,47.80
2017-03-26T07:39:53.115Z,48.50
2017-03-26T07:40:57.865Z,48.50
2017-03-26T07:42:03.604Z,48.20
2017-03-26T07:43:09.107Z,49.20
2017-03-26T07:44:14.817Z,48.80
2017-03-26T07:45:20.298Z,47.20
2017-03-26T07:46:25.781Z,49.00
2017-03-26T07:47:31.375Z,48.40
2017-03-26T07:48:36.121Z,48.30
2017-03-26T07:49:42.401Z,48.50
2017-03-26T07:50:47.273Z,48.50
2017-03-26T07:51:53.478Z,49.30
2017-03-26T07:52:58.787Z,48.60
2017-03-26T07:54:05.373Z,49.20
2017-03-26T07:55:10.970Z,47.90
2017-03-26T07:56:15.738Z,47.80
2017-03-26T07:57:22.052Z,46.70
2017-03-26T07:58:26.748Z,46.60
2017-03-26T07:59:33.124Z,47.70
2017-03-26T08:00:38.726Z,47.60
2017-03-26T08:01:43.453Z,47.60
2017-03-26T08:02:48.273Z,47.80
2017-03-26T08:03:53.843Z,47.30
2017-03-26T08:05:00.243Z,47.70
2017-03-26T08:06:06.204Z,47.00
2017-03-26T08:07:12.618Z,46.70
2017-03-26T08:08:17.382Z,46.70
2017-03-26T08:09:24.809Z,46.90
2017-03-26T08:10:29.617Z,46.60
2017-03-26T08:11:35.210Z,47.70
2017-03-26T08:12:39.908Z,47.40
2017-03-26T08:13:45.448Z,47.10
2017-03-26T08:14:50.293Z,47.10
2017-03-26T08:15:55.891Z,46.50
2017-03-26T08:17:02.354Z,45.80
2017-03-26T08:18:07.014Z,45.80
2017-03-26T08:19:13.501Z,46.00
2017-03-26T08:20:19.235Z,47.20
2017-03-26T08:21:24.788Z,47.20
2017-03-26T08:22:31.130Z,46.80
2017-03-26T08:23:35.948Z,46.80
2017-03-26T08:24:40.757Z,47.20
2017-03-26T08:25:46.440Z,47.00
2017-03-26T08:26:52.817Z,46.80
2017-03-26T08:27:58.404Z,45.50
2017-03-26T08:29:03.213Z,45.50
2017-03-26T08:30:07.892Z,46.70
2017-03-26T08:31:12.724Z,45.60
2017-03-26T08:32:19.109Z,44.00
2017-03-26T08:33:23.958Z,43.90
2017-03-26T08:34:29.396Z,43.80
2017-03-26T08:35:35.817Z,43.60
2017-03-26T08:36:41.378Z,43.80
2017-03-26T08:37:46.327Z,43.70
2017-03-26T08:38:51.969Z,43.90
2017-03-26T08:39:57.509Z,43.70
2017-03-26T08:41:03.089Z,42.50
2017-03-26T08:42:08.573Z,42.70
2017-03-26T08:43:13.502Z,42.70
2017-03-26T08:44:19.066Z,43.50
2017-03-26T08:45:25.361Z,43.70
2017-03-26T08:46:30.838Z,42.80
2017-03-26T08:47:36.591Z,42.00
2017-03-26T08:48:42.113Z,42.90
2017-03-26T08:49:47.700Z,42.90
2017-03-26T08:50:53.297Z,42.70
2017-03-26T08:51:58.136Z,42.70
2017-03-26T08:53:03.656Z,43.10
2017-03-26T08:54:08.458Z,43.10
2017-03-26T08:55:14.757Z,41.60
2017-03-26T08:56:19.593Z,41.60
2017-03-26T08:57:25.265Z,41.70
2017-03-26T08:58:31.555Z,41.60
2017-03-26T08:59:37.281Z,42.10
2017-03-26T09:00:42.100Z,42.50
2017-03-26T09:01:48.533Z,41.70
2017-03-26T09:02:53.262Z,41.70
2017-03-26T09:03:58.072Z,46.10
2017-03-26T09:05:02.797Z,43.40
2017-03-26T09:06:08.362Z,42.00
2017-03-26T09:07:14.633Z,41.30
2017-03-26T09:08:19.437Z,41.30
2017-03-26T09:09:26.737Z,42.40
2017-03-26T09:10:31.557Z,41.60
2017-03-26T09:11:37.658Z,41.40
2017-03-26T09:12:43.329Z,41.30
2017-03-26T09:13:48.005Z,40.50
2017-03-26T09:14:54.438Z,41.60
2017-03-26T09:15:59.089Z,41.50
2017-03-26T09:17:04.666Z,40.80
2017-03-26T09:18:09.495Z,40.80
2017-03-26T09:19:15.970Z,42.00
2017-03-26T09:20:21.572Z,42.20
2017-03-26T09:21:27.080Z,42.20
2017-03-26T09:22:31.817Z,42.20
2017-03-26T09:23:38.253Z,42.20
2017-03-26T09:24:43.046Z,42.00
2017-03-26T09:25:49.510Z,41.70
2017-03-26T09:26:55.168Z,41.30
2017-03-26T09:28:00.962Z,41.00
2017-03-26T09:29:06.001Z,41.00
2017-03-26T09:30:11.625Z,40.80
2017-03-26T09:31:17.176Z,41.80
2017-03-26T09:32:22.161Z,41.80
2017-03-26T09:33:27.909Z,41.70
2017-03-26T09:34:33.485Z,40.50
2017-03-26T09:35:39.073Z,40.50
2017-03-26T09:36:44.604Z,40.30
2017-03-26T09:37:50.237Z,39.80
2017-03-26T09:38:55.745Z,40.10
2017-03-26T09:40:00.396Z,40.70
2017-03-26T09:41:05.760Z,41.50
2017-03-26T09:42:10.861Z,41.00
2017-03-26T09:43:16.484Z,41.20
2017-03-26T09:44:22.073Z,41.00
2017-03-26T09:45:28.417Z,40.40
2017-03-26T09:46:33.985Z,40.70
2017-03-26T09:47:39.854Z,41.20
2017-03-26T09:48:45.286Z,39.80
2017-03-26T09:49:50.832Z,40.80
2017-03-26T09:50:56.449Z,39.50
2017-03-26T09:52:01.448Z,39.40
2017-03-26T09:53:07.067Z,39.90
2017-03-26T09:54:12.614Z,40.10
2017-03-26T09:55:18.213Z,40.20
2017-03-26T09:56:23.002Z,40.10
2017-03-26T09:57:28.424Z,39.50
2017-03-26T09:58:34.002Z,39.30
2017-03-26T09:59:38.865Z,39.30
2017-03-26T10:00:45.185Z,39.50
2017-03-26T10:01:50.844Z,40.20
2017-03-26T10:02:55.657Z,40.20
2017-03-26T10:04:00.380Z,40.50
2017-03-26T10:05:05.924Z,40.60
2017-03-26T10:06:11.573Z,40.20
2017-03-26T10:07:16.433Z,40.10
2017-03-26T10:08:22.057Z,41.00
2017-03-26T10:09:29.344Z,40.80
2017-03-26T10:10:34.910Z,40.90
2017-03-26T10:11:40.609Z,40.50
2017-03-26T10:12:46.144Z,39.20
2017-03-26T10:13:51.874Z,39.00
2017-03-26T10:14:57.477Z,39.80
2017-03-26T10:16:02.342Z,39.80
2017-03-26T10:17:08.709Z,40.60
2017-03-26T10:18:14.364Z,40.20
2017-03-26T10:19:20.019Z,39.00
2017-03-26T10:20:24.837Z,38.90
2017-03-26T10:21:30.446Z,39.30
2017-03-26T10:22:36.050Z,39.60
2017-03-26T10:23:42.477Z,39.20
2017-03-26T10:24:48.265Z,39.10
2017-03-26T10:25:54.480Z,38.20
2017-03-26T10:26:59.897Z,39.80
2017-03-26T10:28:04.777Z,39.80
2017-03-26T10:29:10.576Z,40.80
2017-03-26T10:30:16.870Z,39.40
2017-03-26T10:31:23.326Z,39.70
2017-03-26T10:32:28.912Z,39.60
2017-03-26T10:33:33.796Z,39.60
2017-03-26T10:34:39.390Z,39.60
2017-03-26T10:35:44.886Z,40.90
2017-03-26T10:36:49.685Z,40.90
2017-03-26T10:37:55.962Z,39.30
2017-03-26T10:39:00.885Z,39.30
2017-03-26T10:40:06.516Z,39.70
2017-03-26T10:41:12.809Z,38.70
2017-03-26T10:42:18.343Z,38.70
2017-03-26T10:43:23.855Z,38.40
2017-03-26T10:44:28.693Z,38.40
2017-03-26T10:45:33.453Z,39.00
2017-03-26T10:46:39.725Z,39.10
2017-03-26T10:47:45.418Z,39.10
2017-03-26T10:48:50.894Z,39.20
2017-03-26T10:49:55.681Z,39.10
2017-03-26T10:51:00.576Z,38.40
2017-03-26T10:52:05.206Z,38.30
2017-03-26T10:53:10.906Z,39.50
2017-03-26T10:54:15.781Z,39.40
2017-03-26T10:55:22.066Z,38.30
2017-03-26T10:56:27.934Z,38.30
2017-03-26T10:57:32.577Z,38.30
2017-03-26T10:58:38.213Z,38.70
2017-03-26T10:59:44.389Z,37.70
2017-03-26T11:00:50.186Z,39.40
2017-03-26T11:01:54.970Z,39.40
2017-03-26T11:03:00.580Z,38.40
2017-03-26T11:04:06.143Z,37.40
2017-03-26T11:05:10.952Z,37.30
2017-03-26T11:06:17.381Z,37.70
2017-03-26T11:07:22.088Z,37.60
2017-03-26T11:08:26.938Z,38.10
2017-03-26T11:09:33.169Z,38.50
2017-03-26T11:10:38.070Z,38.30
2017-03-26T11:11:43.613Z,37.50
2017-03-26T11:12:49.137Z,37.30
2017-03-26T11:13:54.740Z,38.10
2017-03-26T11:15:00.363Z,38.30
2017-03-26T11:16:06.772Z,38.60
2017-03-26T11:17:12.509Z,39.00
2017-03-26T11:18:17.414Z,39.00
2017-03-26T11:19:23.822Z,38.60
2017-03-26T11:20:29.569Z,37.80
2017-03-26T11:21:34.672Z,37.90
2017-03-26T11:22:41.138Z,38.00
2017-03-26T11:23:45.965Z,37.20
2017-03-26T11:24:51.595Z,36.50
2017-03-26T11:25:57.261Z,36.40
2017-03-26T11:27:03.398Z,39.80
2017-03-26T11:28:08.106Z,39.60
2017-03-26T11:29:14.637Z,37.20
2017-03-26T11:30:19.328Z,37.20
2017-03-26T11:31:25.795Z,38.00
2017-03-26T11:32:30.521Z,38.00
2017-03-26T11:33:36.147Z,37.40
2017-03-26T11:34:41.806Z,36.50
2017-03-26T11:35:47.416Z,37.00
2017-03-26T11:36:53.077Z,36.00
2017-03-26T11:37:57.817Z,36.00
2017-03-26T11:39:03.407Z,36.50
2017-03-26T11:40:09.787Z,36.20
2017-03-26T11:41:15.353Z,37.00
2017-03-26T11:42:20.959Z,36.80
2017-03-26T11:43:25.741Z,37.00
2017-03-26T11:44:32.067Z,37.20
2017-03-26T11:45:36.968Z,37.00
2017-03-26T11:46:42.631Z,37.10
2017-03-26T11:47:49.035Z,38.70
2017-03-26T11:48:54.601Z,41.80
2017-03-26T11:49:59.388Z,41.50
2017-03-26T11:51:05.812Z,37.20
2017-03-26T11:52:11.259Z,35.90
2017-03-26T11:53:16.202Z,35.90
2017-03-26T11:54:22.577Z,37.20
2017-03-26T11:55:28.016Z,36.40
2017-03-26T11:56:32.770Z,36.40
2017-03-26T11:57:39.274Z,36.30
2017-03-26T11:58:44.791Z,35.30
2017-03-26T11:59:51.287Z,36.30
2017-03-26T12:00:56.985Z,35.80
2017-03-26T12:02:02.724Z,35.60
2017-03-26T12:03:07.434Z,35.50
2017-03-26T12:04:13.211Z,35.40
2017-03-26T12:05:18.589Z,35.60
2017-03-26T12:06:25.056Z,36.20
2017-03-26T12:07:29.979Z,36.20
2017-03-26T12:08:35.734Z,36.70
2017-03-26T12:09:42.109Z,37.60
2017-03-26T12:10:47.697Z,35.30
2017-03-26T12:11:53.305Z,36.40
2017-03-26T12:12:58.362Z,36.50
2017-03-26T12:14:03.913Z,36.60
2017-03-26T12:15:09.401Z,35.70
2017-03-26T12:16:16.308Z,36.30
2017-03-26T12:17:21.679Z,36.30
2017-03-26T12:18:27.184Z,36.60
2017-03-26T12:19:31.879Z,39.80
2017-03-26T12:20:38.321Z,35.80
2017-03-26T12:21:43.177Z,35.90
2017-03-26T12:22:49.417Z,36.40
2017-03-26T12:23:54.121Z,36.20
2017-03-26T12:25:00.390Z,36.30
2017-03-26T12:26:05.382Z,36.20
2017-03-26T12:27:11.532Z,35.20
2017-03-26T12:28:16.361Z,35.20
2017-03-26T12:29:22.814Z,34.60
2017-03-26T12:30:27.717Z,34.60
2017-03-26T12:31:33.305Z,35.30
2017-03-26T12:32:38.826Z,34.20
2017-03-26T12:33:44.508Z,34.80
2017-03-26T12:34:49.985Z,35.90
2017-03-26T12:35:55.522Z,35.10
2017-03-26T12:37:01.076Z,36.30
2017-03-26T12:38:06.760Z,34.40
2017-03-26T12:39:11.628Z,34.30
2017-03-26T12:40:16.376Z,34.10
2017-03-26T12:41:21.928Z,34.80
2017-03-26T12:42:28.268Z,34.80
2017-03-26T12:43:33.061Z,34.40
2017-03-26T12:44:38.714Z,34.90
2017-03-26T12:45:43.433Z,37.10
2017-03-26T12:46:48.914Z,34.80
2017-03-26T12:47:54.521Z,33.00
2017-03-26T12:49:00.053Z,34.20
2017-03-26T12:50:05.970Z,33.90
2017-03-26T12:51:11.665Z,33.80
2017-03-26T12:52:17.153Z,35.10
2017-03-26T12:53:23.545Z,34.80
2017-03-26T12:54:29.118Z,33.10
2017-03-26T12:55:34.751Z,33.30
2017-03-26T12:56:40.289Z,35.40
2017-03-26T12:57:45.203Z,35.40
2017-03-26T12:58:50.763Z,34.00
2017-03-26T12:59:57.353Z,35.60
2017-03-26T13:01:03.137Z,35.60
2017-03-26T13:02:09.232Z,35.20
2017-03-26T13:03:15.002Z,36.50
2017-03-26T13:04:20.783Z,36.50
2017-03-26T13:05:25.570Z,36.00
2017-03-26T13:06:31.049Z,33.40
2017-03-26T13:07:37.409Z,35.30
2017-03-26T13:08:43.131Z,33.40
2017-03-26T13:09:48.953Z,33.40
2017-03-26T13:10:54.529Z,32.50
2017-03-26T13:11:59.308Z,32.50
2017-03-26T13:13:04.830Z,33.10
2017-03-26T13:14:10.493Z,35.00
2017-03-26T13:15:17.573Z,35.30
2017-03-26T13:16:23.178Z,34.80
2017-03-26T13:17:28.874Z,34.20
2017-03-26T13:18:35.333Z,34.30
2017-03-26T13:19:40.150Z,34.40
2017-03-26T13:20:45.792Z,33.10
2017-03-26T13:21:51.982Z,32.50
2017-03-26T13:22:56.703Z,32.50
2017-03-26T13:24:02.957Z,33.80
2017-03-26T13:25:07.829Z,33.80
2017-03-26T13:26:14.196Z,35.80
2017-03-26T13:27:19.850Z,35.60
2017-03-26T13:28:26.631Z,35.50
2017-03-26T13:29:32.074Z,34.80
2017-03-26T13:30:38.382Z,31.40
2017-03-26T13:31:43.082Z,31.40
2017-03-26T13:32:48.778Z,31.40
2017-03-26T13:33:54.386Z,31.90
2017-03-26T13:35:01.036Z,33.40
2017-03-26T13:36:07.528Z,32.70
2017-03-26T13:37:13.077Z,32.50
2017-03-26T13:38:17.977Z,32.50
2017-03-26T13:39:23.738Z,34.40
2017-03-26T13:40:29.357Z,33.80
2017-03-26T13:41:34.765Z,32.70
2017-03-26T13:42:40.387Z,35.00
2017-03-26T13:43:45.891Z,32.40
2017-03-26T13:44:52.309Z,34.60
2017-03-26T13:45:57.035Z,34.60
2017-03-26T13:47:03.289Z,32.50
2017-03-26T13:48:08.183Z,32.50
2017-03-26T13:49:13.694Z,32.80
2017-03-26T13:50:19.226Z,32.10
2017-03-26T13:51:24.911Z,32.80
2017-03-26T13:52:29.862Z,31.50
2017-03-26T13:53:36.157Z,36.00
2017-03-26T13:54:40.830Z,35.90
2017-03-26T13:55:45.598Z,32.40
2017-03-26T13:56:51.904Z,30.90
2017-03-26T13:57:57.450Z,33.70
2017-03-26T13:59:03.293Z,30.90
2017-03-26T14:00:08.051Z,30.80
2017-03-26T14:01:13.708Z,31.80
2017-03-26T14:02:19.977Z,31.50
2017-03-26T14:03:25.550Z,33.70
2017-03-26T14:04:30.561Z,33.60